Archival Weather

Randolph Afb

Universal City, Texas (KRND)

Report from: Monday, September 26, 2022 2:55 PM CDT
Current time: Saturday, February 4, 2023 10:57 PM CST

Current weather
Weather history
Weather forecast

Temperature34.2°C (93.6°F)
Heat index32.2°C (89.9°F)
Dew point8.0°C (46.4°F)
Winds 11 kts (5.7 m/s, 12.7 mph) North (360°)
Wind gusts 15 kts (7.7 m/s, 17.3 mph)
Visibility10 mi. (16.1 km)
Clouds Sky clear
Altimeter29.99 in.Hg (1016 mB)
Relative humidity20 %
Density altitude2,261 ft. (689 m)
Sea-level pressure101.5 kPa (1015 mB, 29.96 in.Hg)
Remarks Fully automated report
Automated weather observing station with precipitation discriminator
Flight conditions Visual Meteorological Conditions
Raw dataKRND 261955Z AUTO 36011G15KT 10SM CLR 34/08 A2999 RMK AO2 SLP146 T03420080
An unhandled exception has occurred. See browser dev tools for details. Reload 🗙